createdAt,value
2019-03-25T00:01:05.861Z,97109.46
2019-03-25T00:03:37.958Z,97110.02
2019-03-25T00:06:09.976Z,97104.76
2019-03-25T00:08:41.798Z,97109.64
2019-03-25T00:11:13.723Z,97101.28
2019-03-25T00:13:45.759Z,97098.05
2019-03-25T00:16:17.819Z,97103.94
2019-03-25T00:18:49.666Z,97095.83
2019-03-25T00:21:21.844Z,97084.80
2019-03-25T00:23:53.634Z,97088.14
2019-03-25T00:26:25.486Z,97092.25
2019-03-25T00:28:57.268Z,97091.94
2019-03-25T00:31:29.057Z,97082.53
2019-03-25T00:34:01.164Z,97092.07
2019-03-25T00:36:33.062Z,97078.59
2019-03-25T00:39:07.641Z,97081.12
2019-03-25T00:41:39.581Z,97075.41
2019-03-25T00:44:11.417Z,97083.89
2019-03-25T00:46:43.409Z,97083.28
2019-03-25T00:49:15.455Z,97081.70
2019-03-25T00:51:47.389Z,97087.53
2019-03-25T00:54:19.184Z,97079.83
2019-03-25T00:56:51.112Z,97081.42
2019-03-25T00:59:22.899Z,97079.70
2019-03-25T01:01:54.920Z,97087.02
2019-03-25T01:04:26.843Z,97088.34
2019-03-25T01:06:58.803Z,97092.72
2019-03-25T01:09:30.745Z,97074.25
2019-03-25T01:12:02.769Z,97066.55
2019-03-25T01:14:34.559Z,97075.75
2019-03-25T01:17:06.320Z,97080.41
2019-03-25T01:19:38.115Z,97072.41
2019-03-25T01:22:10.178Z,97071.16
2019-03-25T01:24:41.942Z,97078.91
2019-03-25T01:27:13.755Z,97079.97
2019-03-25T01:29:45.548Z,97077.50
2019-03-25T01:32:17.705Z,97080.39
2019-03-25T01:34:49.654Z,97081.04
2019-03-25T01:37:21.474Z,97081.79
2019-03-25T01:39:53.582Z,97080.92
2019-03-25T01:42:25.732Z,97083.25
2019-03-25T01:44:59.017Z,97084.07
2019-03-25T01:47:30.868Z,97085.02
2019-03-25T01:50:03.043Z,97080.73
2019-03-25T01:52:34.882Z,97076.83
2019-03-25T01:55:13.528Z,97079.58
2019-03-25T01:57:42.256Z,97070.63
2019-03-25T02:00:15.176Z,97080.92
2019-03-25T02:02:47.628Z,97081.41
2019-03-25T02:05:19.396Z,97077.36
2019-03-25T02:07:51.432Z,97073.86
2019-03-25T02:10:23.525Z,97086.38
2019-03-25T02:12:55.447Z,97082.66
2019-03-25T02:15:27.546Z,97072.25
2019-03-25T02:17:59.479Z,97074.32
2019-03-25T02:20:31.661Z,97071.02
2019-03-25T02:25:42.883Z,97073.19
2019-03-25T02:28:14.935Z,97074.87
2019-03-25T02:30:47.743Z,97068.23
2019-03-25T02:33:19.913Z,97067.21
2019-03-25T02:35:51.788Z,97057.91
2019-03-25T02:38:23.571Z,97060.16
2019-03-25T02:40:55.526Z,97061.52
2019-03-25T02:43:27.384Z,97059.37
2019-03-25T02:45:59.276Z,97059.55
2019-03-25T02:48:31.128Z,97058.06
2019-03-25T02:51:03.162Z,97055.43
2019-03-25T02:53:35.060Z,97051.41
2019-03-25T02:56:07.102Z,97054.67
2019-03-25T02:58:39.194Z,97052.91
2019-03-25T03:01:10.966Z,97049.68
2019-03-25T03:03:42.728Z,97051.41
2019-03-25T03:06:14.592Z,97052.12
2019-03-25T03:08:47.744Z,97060.94
2019-03-25T03:11:19.659Z,97055.20
2019-03-25T03:13:51.565Z,97055.80
2019-03-25T03:16:23.419Z,97049.00
2019-03-25T03:18:55.494Z,97044.78
2019-03-25T03:21:27.307Z,97051.37
2019-03-25T03:23:59.168Z,97042.69
2019-03-25T03:26:31.029Z,97042.17
2019-03-25T03:29:02.836Z,97042.80
2019-03-25T03:31:34.713Z,97048.55
2019-03-25T03:34:06.557Z,97045.42
2019-03-25T03:36:38.635Z,97053.80
2019-03-25T03:39:10.657Z,97057.13
2019-03-25T03:41:42.913Z,97053.13
2019-03-25T03:44:14.756Z,97051.00
2019-03-25T03:46:47.991Z,97049.87
2019-03-25T03:49:19.841Z,97042.94
2019-03-25T03:51:52.640Z,97046.81
2019-03-25T03:54:24.627Z,97041.30
2019-03-25T03:56:57.761Z,97050.00
2019-03-25T03:59:29.541Z,97050.19
2019-03-25T04:02:01.631Z,97047.44
2019-03-25T04:04:33.484Z,97052.05
2019-03-25T04:07:05.377Z,97049.08
2019-03-25T04:09:37.199Z,97044.11
2019-03-25T04:12:09.588Z,97043.41
2019-03-25T04:14:41.433Z,97039.83
2019-03-25T04:17:14.261Z,97033.55
2019-03-25T04:19:46.432Z,97037.63
2019-03-25T04:22:18.353Z,97032.50
2019-03-25T04:24:50.240Z,97034.94
2019-03-25T04:27:24.048Z,97034.32
2019-03-25T04:29:55.791Z,97037.48
2019-03-25T04:32:27.633Z,97042.42
2019-03-25T04:34:59.527Z,97037.15
2019-03-25T04:37:31.326Z,97036.06
2019-03-25T04:40:04.513Z,97046.38
2019-03-25T04:42:36.291Z,97039.92
2019-03-25T04:45:08.340Z,97043.25
2019-03-25T04:47:40.221Z,97046.61
2019-03-25T04:50:12.608Z,97044.79
2019-03-25T04:52:44.536Z,97048.05
2019-03-25T04:55:16.706Z,97052.34
2019-03-25T04:57:48.667Z,97048.80
2019-03-25T05:00:38.061Z,97045.17
2019-03-25T05:03:10.815Z,97047.88
2019-03-25T05:05:43.129Z,97045.77
2019-03-25T05:08:14.968Z,97040.64
2019-03-25T05:10:47.943Z,97035.48
2019-03-25T05:13:20.304Z,97036.75
2019-03-25T05:15:52.198Z,97038.76
2019-03-25T05:18:24.130Z,97040.23
2019-03-25T05:20:55.955Z,97035.59
2019-03-25T05:23:27.743Z,97043.41
2019-03-25T05:25:59.503Z,97039.52
2019-03-25T05:28:31.270Z,97041.13
2019-03-25T05:31:03.088Z,97038.82
2019-03-25T05:33:34.921Z,97039.47
2019-03-25T05:36:06.774Z,97041.23
2019-03-25T05:38:38.560Z,97035.80
2019-03-25T05:41:11.107Z,97040.23
2019-03-25T05:43:43.145Z,97044.94
2019-03-25T05:46:14.917Z,97048.06
2019-03-25T05:48:48.004Z,97041.44
2019-03-25T05:51:19.840Z,97045.05
2019-03-25T05:53:51.837Z,97044.59
2019-03-25T05:56:23.644Z,97046.98
2019-03-25T05:58:55.711Z,97045.50
2019-03-25T06:01:28.622Z,97047.23
2019-03-25T06:04:00.585Z,97041.48
2019-03-25T06:06:32.544Z,97045.41
2019-03-25T06:09:05.003Z,97041.34
2019-03-25T06:11:36.895Z,97045.67
2019-03-25T06:14:08.802Z,97045.67
2019-03-25T06:16:40.562Z,97048.77
2019-03-25T06:19:12.324Z,97047.13
2019-03-25T06:21:44.446Z,97050.05
2019-03-25T06:24:16.310Z,97047.21
2019-03-25T06:26:48.096Z,97050.56
2019-03-25T06:29:19.963Z,97046.95
2019-03-25T06:31:52.068Z,97046.57
2019-03-25T06:34:24.219Z,97042.81
2019-03-25T06:36:56.070Z,97041.86
2019-03-25T06:39:27.981Z,97045.74
2019-03-25T06:41:59.739Z,97033.69
2019-03-25T06:44:31.639Z,97030.55
2019-03-25T06:47:03.605Z,97040.02
2019-03-25T06:49:35.380Z,97040.27
2019-03-25T06:52:07.518Z,97037.57
2019-03-25T06:54:39.540Z,97033.75
2019-03-25T06:57:11.299Z,97042.09
2019-03-25T06:59:43.214Z,97043.01
2019-03-25T07:02:15.324Z,97045.73
2019-03-25T07:04:48.601Z,97048.08
2019-03-25T07:07:20.544Z,97043.98
2019-03-25T07:09:52.535Z,97040.70
2019-03-25T07:12:24.657Z,97048.44
2019-03-25T07:14:56.503Z,97052.05
2019-03-25T07:17:28.440Z,97045.89
2019-03-25T07:20:00.331Z,97047.92
2019-03-25T07:22:32.239Z,97050.61
2019-03-25T07:25:04.109Z,97051.23
2019-03-25T07:27:37.327Z,97031.50
2019-03-25T07:30:11.409Z,97024.26
2019-03-25T07:32:43.525Z,97025.30
2019-03-25T07:35:15.576Z,97026.41
2019-03-25T07:37:48.491Z,97018.91
2019-03-25T07:40:20.393Z,97018.38
2019-03-25T07:42:53.945Z,97019.15
2019-03-25T07:45:25.867Z,97020.03
2019-03-25T07:47:58.759Z,97022.63
2019-03-25T07:50:30.674Z,97024.80
2019-03-25T07:53:02.509Z,97019.70
2019-03-25T07:55:34.920Z,97028.32
2019-03-25T07:58:07.130Z,97030.49
2019-03-25T08:00:39.165Z,97031.99
2019-03-25T08:03:12.069Z,97033.42
2019-03-25T08:05:44.152Z,97026.66
2019-03-25T08:08:15.932Z,97030.13
2019-03-25T08:10:48.489Z,97030.30
2019-03-25T08:13:20.405Z,97036.81
2019-03-25T08:15:52.686Z,97026.13
2019-03-25T08:18:24.652Z,97027.92
2019-03-25T08:20:57.604Z,97027.63
2019-03-25T08:23:29.539Z,97020.50
2019-03-25T08:26:01.401Z,97022.72
2019-03-25T08:28:33.321Z,97018.48
2019-03-25T08:31:05.499Z,97021.87
2019-03-25T08:33:37.738Z,97019.05
2019-03-25T08:36:09.835Z,97024.28
2019-03-25T08:38:41.643Z,97028.20
2019-03-25T08:41:13.640Z,97028.13
2019-03-25T08:43:46.648Z,97023.28
2019-03-25T08:46:18.436Z,97040.26
2019-03-25T08:48:50.476Z,97033.58
2019-03-25T08:51:22.705Z,97030.13
2019-03-25T08:53:54.798Z,97036.31
2019-03-25T08:56:26.697Z,97027.22
2019-03-25T08:58:58.587Z,97040.33
2019-03-25T09:01:30.573Z,97032.73
2019-03-25T09:04:02.391Z,97039.57
2019-03-25T09:06:34.249Z,97048.09
2019-03-25T09:09:08.543Z,97046.25
2019-03-25T09:11:40.861Z,97047.54
2019-03-25T09:14:12.959Z,97057.45
2019-03-25T09:16:44.916Z,97048.67
2019-03-25T09:19:16.953Z,97049.76
2019-03-25T09:21:48.861Z,97042.66
2019-03-25T09:24:20.768Z,97052.35
2019-03-25T09:26:52.806Z,97037.89
2019-03-25T09:29:24.731Z,97049.74
2019-03-25T09:31:56.659Z,97032.38
2019-03-25T09:34:28.449Z,97027.70
2019-03-25T09:37:00.413Z,97027.63
2019-03-25T09:39:32.380Z,97027.27
2019-03-25T09:42:04.329Z,97020.44
2019-03-25T09:44:36.175Z,97020.25
2019-03-25T09:47:08.027Z,97014.30
2019-03-25T09:49:39.880Z,97022.77
2019-03-25T09:52:11.933Z,97028.93
2019-03-25T09:54:43.805Z,97029.25
2019-03-25T09:57:15.950Z,97032.81
2019-03-25T09:59:48.830Z,97034.86
2019-03-25T10:02:20.908Z,97029.61
2019-03-25T10:04:52.875Z,97036.67
2019-03-25T10:07:28.292Z,97038.20
2019-03-25T10:09:59.343Z,97039.91
2019-03-25T10:12:31.218Z,97053.32
2019-03-25T10:15:03.151Z,97043.33
2019-03-25T10:17:35.108Z,97047.55
2019-03-25T10:20:07.696Z,97052.73
2019-03-25T10:22:39.850Z,97049.23
2019-03-25T10:25:13.383Z,97051.36
2019-03-25T10:27:45.369Z,97052.33
2019-03-25T10:30:18.068Z,97048.84
2019-03-25T10:32:50.205Z,97054.05
2019-03-25T10:35:22.308Z,97053.88
2019-03-25T10:37:54.350Z,97047.80
2019-03-25T10:40:26.240Z,97038.18
2019-03-25T10:42:58.204Z,97031.14
2019-03-25T10:45:30.116Z,97039.95
2019-03-25T10:48:01.905Z,97029.75
2019-03-25T10:50:33.781Z,97025.40
2019-03-25T10:53:05.680Z,97023.55
2019-03-25T10:55:38.724Z,97023.98
2019-03-25T10:58:10.734Z,97017.93
2019-03-25T11:00:44.164Z,97016.71
2019-03-25T11:03:17.057Z,97013.37
2019-03-25T11:05:49.119Z,97008.86
2019-03-25T11:08:21.217Z,97006.04
2019-03-25T11:10:53.489Z,97002.72
2019-03-25T11:13:25.301Z,97008.92
2019-03-25T11:15:57.534Z,97009.72
2019-03-25T11:18:29.830Z,97010.33
2019-03-25T11:21:01.707Z,97002.57
2019-03-25T11:23:33.574Z,97007.52
2019-03-25T11:26:05.576Z,97004.45
2019-03-25T11:28:37.924Z,97007.70
2019-03-25T11:31:09.842Z,97003.47
2019-03-25T11:33:42.270Z,97008.41
2019-03-25T11:36:14.933Z,97003.68
2019-03-25T11:38:46.875Z,97001.78
2019-03-25T11:41:19.232Z,97003.20
2019-03-25T11:43:51.419Z,97010.66
2019-03-25T11:46:23.778Z,97012.17
2019-03-25T11:48:55.807Z,97014.70
2019-03-25T11:51:28.205Z,97008.27
2019-03-25T11:54:00.248Z,97010.33
2019-03-25T11:56:32.110Z,97004.28
2019-03-25T11:59:04.044Z,97002.58
2019-03-25T12:01:35.878Z,97001.20
2019-03-25T12:04:10.581Z,97000.38
2019-03-25T12:06:42.688Z,97001.50
2019-03-25T12:09:14.979Z,97003.73
2019-03-25T12:11:47.182Z,96990.35
2019-03-25T12:14:19.414Z,96981.33
2019-03-25T12:16:51.314Z,96975.33
2019-03-25T12:19:23.196Z,96966.98
2019-03-25T12:21:55.043Z,96975.56
2019-03-25T12:24:26.925Z,96971.14
2019-03-25T12:26:59.261Z,96977.39
2019-03-25T12:29:31.288Z,96974.72
2019-03-25T12:32:03.215Z,96978.97
2019-03-25T12:34:35.196Z,96993.67
2019-03-25T12:37:07.052Z,96978.38
2019-03-25T12:39:39.189Z,96989.22
2019-03-25T12:42:11.128Z,97009.78
2019-03-25T12:44:43.085Z,97017.48
2019-03-25T12:47:15.500Z,97004.69
2019-03-25T12:49:47.491Z,96995.57
2019-03-25T12:52:19.435Z,96997.84
2019-03-25T12:54:51.320Z,97001.25
2019-03-25T12:57:23.569Z,96993.87
2019-03-25T12:59:55.673Z,96991.05
2019-03-25T13:02:27.438Z,96998.34
2019-03-25T13:04:59.396Z,96988.19
2019-03-25T13:07:31.382Z,96988.19
2019-03-25T13:10:03.366Z,96975.55
2019-03-25T13:12:35.316Z,96985.36
2019-03-25T13:15:08.670Z,96974.38
2019-03-25T13:17:40.472Z,96967.29
2019-03-25T13:20:13.523Z,96963.66
2019-03-25T13:22:45.418Z,96965.91
2019-03-25T13:25:17.264Z,96954.16
2019-03-25T13:27:49.296Z,96952.55
2019-03-25T13:30:21.491Z,96936.25
2019-03-25T13:32:53.297Z,96932.19
2019-03-25T13:35:25.242Z,96936.47
2019-03-25T13:37:59.005Z,96939.98
2019-03-25T13:40:31.257Z,96936.14
2019-03-25T13:43:03.192Z,96934.72
2019-03-25T13:45:35.231Z,96941.48
2019-03-25T13:48:14.082Z,96955.50
2019-03-25T13:50:49.155Z,96958.45
2019-03-25T13:53:21.185Z,96969.48
2019-03-25T13:55:53.171Z,96962.80
2019-03-25T13:58:26.123Z,96962.20
2019-03-25T14:00:59.107Z,96979.01
2019-03-25T14:03:32.023Z,96987.50
2019-03-25T14:06:10.733Z,96994.17
2019-03-25T14:08:44.930Z,97013.91
2019-03-25T14:11:18.858Z,97030.84
2019-03-25T14:13:50.738Z,97061.00
2019-03-25T14:16:22.940Z,97098.13
2019-03-25T14:18:54.944Z,97096.46
2019-03-25T14:21:27.201Z,97111.84
2019-03-25T14:24:05.372Z,97105.44
2019-03-25T14:26:37.219Z,97079.83
2019-03-25T14:29:09.185Z,97075.80
2019-03-25T14:31:41.083Z,97059.45
2019-03-25T14:34:17.899Z,97048.17
2019-03-25T14:36:49.828Z,97044.97
2019-03-25T14:39:23.022Z,97038.73
2019-03-25T14:41:55.372Z,97042.63
2019-03-25T14:44:27.551Z,97048.73
2019-03-25T14:47:09.284Z,97047.23
2019-03-25T14:49:41.126Z,97054.00
2019-03-25T14:52:21.283Z,97047.08
2019-03-25T14:54:53.158Z,97046.23
2019-03-25T14:57:25.084Z,97049.38
2019-03-25T14:59:57.270Z,97053.51
2019-03-25T15:02:30.160Z,97062.48
2019-03-25T15:05:02.069Z,97059.55
2019-03-25T15:07:34.665Z,97063.75
2019-03-25T15:10:18.388Z,97057.69
2019-03-25T15:12:50.234Z,97060.00
2019-03-25T15:15:22.192Z,97055.91
2019-03-25T15:17:54.190Z,97049.77
2019-03-25T15:20:26.143Z,97047.39
2019-03-25T15:22:57.934Z,97052.27
2019-03-25T15:25:29.817Z,97043.61
2019-03-25T15:28:01.791Z,97040.48
2019-03-25T15:30:36.266Z,97039.28
2019-03-25T15:33:07.427Z,97047.01
2019-03-25T15:35:39.511Z,97046.97
2019-03-25T15:38:11.588Z,97044.77
2019-03-25T15:40:43.514Z,97041.19
2019-03-25T15:43:15.466Z,97044.04
2019-03-25T15:45:47.426Z,97045.81
2019-03-25T15:48:19.956Z,97050.58
2019-03-25T15:50:51.749Z,97064.84
2019-03-25T15:53:23.527Z,97064.92
2019-03-25T15:55:55.322Z,97064.14
2019-03-25T15:58:27.344Z,97065.80
2019-03-25T16:00:59.550Z,97069.06
2019-03-25T16:03:31.338Z,97078.52
2019-03-25T16:06:03.148Z,97088.29
2019-03-25T16:08:35.055Z,97079.61
2019-03-25T16:11:07.031Z,97084.42
2019-03-25T16:13:38.808Z,97088.63
2019-03-25T16:16:10.748Z,97091.58
2019-03-25T16:18:43.544Z,97086.30
2019-03-25T16:21:15.648Z,97078.30
2019-03-25T16:23:47.575Z,97084.56
2019-03-25T16:26:19.693Z,97089.59
2019-03-25T16:28:51.949Z,97096.78
2019-03-25T16:31:23.856Z,97104.41
2019-03-25T16:33:55.661Z,97094.30
2019-03-25T16:36:27.618Z,97105.51
2019-03-25T16:38:59.438Z,97095.95
2019-03-25T16:41:33.139Z,97100.32
2019-03-25T16:44:05.373Z,97093.31
2019-03-25T16:46:37.238Z,97102.80
2019-03-25T16:49:09.229Z,97099.75
2019-03-25T16:51:40.992Z,97095.31
2019-03-25T16:54:12.845Z,97107.33
2019-03-25T19:36:56.444Z,97260.53
2019-03-25T19:39:28.342Z,97262.05
2019-03-25T19:42:00.206Z,97267.64
2019-03-25T19:44:32.062Z,97272.91
2019-03-25T19:47:03.925Z,97274.33
2019-03-25T19:49:35.794Z,97273.40
2019-03-25T19:52:09.454Z,97277.70
2019-03-25T19:54:41.113Z,97286.77
2019-03-25T19:57:12.948Z,97287.65
2019-03-25T19:59:44.721Z,97299.64
2019-03-25T20:02:19.175Z,97296.70
2019-03-25T20:04:50.326Z,97305.19
2019-03-25T20:07:22.109Z,97303.17
2019-03-25T20:09:54.037Z,97296.95
2019-03-25T20:12:26.224Z,97309.70
2019-03-25T20:14:58.322Z,97314.59
2019-03-25T20:17:30.168Z,97316.78
2019-03-25T20:20:02.032Z,97320.03
2019-03-25T20:22:34.231Z,97319.44
2019-03-25T20:25:06.764Z,97327.05
2019-03-25T20:27:38.680Z,97326.74
2019-03-25T20:30:11.137Z,97335.91
2019-03-25T20:32:43.144Z,97337.31
2019-03-25T20:35:15.708Z,97346.59
2019-03-25T20:37:47.567Z,97347.72
2019-03-25T20:40:20.569Z,97344.32
2019-03-25T20:42:52.418Z,97341.16
2019-03-25T20:45:24.271Z,97339.25
2019-03-25T20:47:56.090Z,97336.65
2019-03-25T20:50:27.881Z,97342.55
2019-03-25T20:52:59.972Z,97347.94
2019-03-25T20:55:31.751Z,97347.72
2019-03-25T20:58:04.868Z,97343.21
2019-03-25T21:00:57.187Z,97351.73
2019-03-25T21:03:29.256Z,97351.91
2019-03-25T21:06:01.090Z,97353.09
2019-03-25T21:08:33.981Z,97358.99
2019-03-25T21:11:05.765Z,97364.72
2019-03-25T21:13:37.518Z,97371.11
2019-03-25T21:16:09.461Z,97374.38
2019-03-25T21:18:42.268Z,97373.06
2019-03-25T21:21:14.052Z,97373.59
2019-03-25T21:23:46.085Z,97372.58
2019-03-25T21:26:17.935Z,97372.91
2019-03-25T21:28:51.132Z,97375.68
2019-03-25T21:31:23.194Z,97370.80
2019-03-25T21:33:55.936Z,97379.14
2019-03-25T21:36:27.831Z,97383.69
2019-03-25T21:38:59.586Z,97382.40
2019-03-25T21:41:31.431Z,97375.20
2019-03-25T21:44:03.246Z,97381.27
2019-03-25T21:46:35.312Z,97389.45
2019-03-25T21:49:07.113Z,97387.13
2019-03-25T21:51:39.216Z,97396.28
2019-03-25T21:54:11.146Z,97413.12
2019-03-25T21:56:43.356Z,97413.80
2019-03-25T21:59:15.274Z,97414.59
2019-03-25T22:01:47.289Z,97416.40
2019-03-25T22:04:19.067Z,97417.73
2019-03-25T22:06:51.190Z,97415.11
2019-03-25T22:09:22.956Z,97416.56
2019-03-25T22:11:54.736Z,97418.69
2019-03-25T22:14:26.520Z,97426.38
2019-03-25T22:16:58.285Z,97428.69
2019-03-25T22:19:30.058Z,97423.13
2019-03-25T22:22:01.961Z,97417.72
2019-03-25T22:24:33.827Z,97427.98
2019-03-25T22:27:05.605Z,97428.19
2019-03-25T22:29:37.444Z,97433.59
2019-03-25T22:32:09.231Z,97432.90
2019-03-25T22:34:41.264Z,97438.16
2019-03-25T22:37:13.085Z,97435.38
2019-03-25T22:39:45.241Z,97442.91
2019-03-25T22:42:17.013Z,97442.42
2019-03-25T22:44:48.962Z,97439.16
2019-03-25T22:47:21.461Z,97442.42
2019-03-25T22:49:53.332Z,97437.02
2019-03-25T22:52:25.372Z,97440.63
2019-03-25T22:54:57.513Z,97443.41
2019-03-25T22:57:29.902Z,97447.32
2019-03-25T23:00:01.693Z,97453.05
2019-03-25T23:02:34.799Z,97458.95
2019-03-25T23:05:07.497Z,97458.46
2019-03-25T23:07:39.558Z,97462.55
2019-03-25T23:10:11.911Z,97464.02
2019-03-25T23:12:43.900Z,97471.20
2019-03-25T23:15:16.093Z,97469.42
2019-03-25T23:17:48.272Z,97468.59
2019-03-25T23:20:21.063Z,97477.73
2019-03-25T23:22:54.611Z,97480.36
2019-03-25T23:25:26.342Z,97483.14
2019-03-25T23:27:58.258Z,97481.35
2019-03-25T23:30:30.022Z,97479.73
2019-03-25T23:33:02.265Z,97480.05
2019-03-25T23:35:34.102Z,97484.95
2019-03-25T23:38:06.039Z,97491.34
2019-03-25T23:40:37.909Z,97487.27
2019-03-25T23:43:09.991Z,97481.83
2019-03-25T23:45:41.913Z,97489.19
2019-03-25T23:48:14.764Z,97488.72
2019-03-25T23:50:46.643Z,97490.48
2019-03-25T23:53:18.409Z,97483.64
2019-03-25T23:55:51.062Z,97484.13
2019-03-25T23:58:23.618Z,97492.97
